<?xml version="1.0" encoding="UTF-8" standalone="no" ?>
<gpx xmlns="http://www.topografix.com/GPX/1/1" xmlns:xsi="http://www.w3.org/2001/XMLSchema-instance" xsi:schemaLocation="http://www.topografix.com/GPX/1/1 http://www.topografix.com/GPX/1/1/gpx.xsd" version="1.1" creator="VisuGPX - https://www.visugpx.com">
  <metadata>
    <name>secteur Saverne - Dabo - Petite Pierre</name>
  </metadata>
  <trk>
    <name><![CDATA[secteur Saverne - Dabo - Petite Pierre_4]]></name>
    <trkseg>
      <trkpt lat="48.65745" lon="7.23596">
        <ele>466.1</ele>
        <time>2020-08-27T12:09:17Z</time>
      </trkpt>
      <trkpt lat="48.65745" lon="7.23596">
        <ele>466.1</ele>
        <time>2020-08-27T12:09:17Z</time>
      </trkpt>
      <trkpt lat="48.65745" lon="7.23596">
        <ele>466.1</ele>
        <time>2020-08-27T12:09:17Z</time>
      </trkpt>
      <trkpt lat="48.65745" lon="7.23596">
        <ele>466.1</ele>
        <time>2020-08-27T12:09:17Z</time>
      </trkpt>
      <trkpt lat="48.65745" lon="7.23596">
        <ele>466.1</ele>
        <time>2020-08-27T12:09:17Z</time>
      </trkpt>
      <trkpt lat="48.65745" lon="7.23596">
        <ele>466.1</ele>
        <time>2020-08-27T12:09:17Z</time>
      </trkpt>
      <trkpt lat="48.65745" lon="7.23596">
        <ele>466.1</ele>
        <time>2020-08-27T12:09:17Z</time>
      </trkpt>
      <trkpt lat="48.65745" lon="7.23596">
        <ele>466.1</ele>
        <time>2020-08-27T12:09:17Z</time>
      </trkpt>
      <trkpt lat="48.65746" lon="7.23586">
        <ele>465.9</ele>
        <time>2020-08-27T12:09:19Z</time>
      </trkpt>
      <trkpt lat="48.65745" lon="7.23577">
        <ele>466.1</ele>
        <time>2020-08-27T12:09:21Z</time>
      </trkpt>
      <trkpt lat="48.65741" lon="7.23569">
        <ele>466.3</ele>
        <time>2020-08-27T12:09:23Z</time>
      </trkpt>
      <trkpt lat="48.65736" lon="7.23564">
        <ele>466.3</ele>
        <time>2020-08-27T12:09:25Z</time>
      </trkpt>
      <trkpt lat="48.6573" lon="7.2356">
        <ele>466.6</ele>
        <time>2020-08-27T12:09:27Z</time>
      </trkpt>
      <trkpt lat="48.65725" lon="7.23558">
        <ele>466.9</ele>
        <time>2020-08-27T12:09:29Z</time>
      </trkpt>
      <trkpt lat="48.65721" lon="7.23551">
        <ele>467.5</ele>
        <time>2020-08-27T12:09:32Z</time>
      </trkpt>
      <trkpt lat="48.65721" lon="7.23544">
        <ele>467.8</ele>
        <time>2020-08-27T12:09:34Z</time>
      </trkpt>
      <trkpt lat="48.65722" lon="7.23536">
        <ele>467.4</ele>
        <time>2020-08-27T12:09:36Z</time>
      </trkpt>
      <trkpt lat="48.65723" lon="7.23525">
        <ele>467.1</ele>
        <time>2020-08-27T12:09:38Z</time>
      </trkpt>
      <trkpt lat="48.65723" lon="7.23514">
        <ele>467.3</ele>
        <time>2020-08-27T12:09:40Z</time>
      </trkpt>
      <trkpt lat="48.65724" lon="7.23502">
        <ele>467.3</ele>
        <time>2020-08-27T12:09:42Z</time>
      </trkpt>
      <trkpt lat="48.65723" lon="7.23491">
        <ele>467.2</ele>
        <time>2020-08-27T12:09:44Z</time>
      </trkpt>
      <trkpt lat="48.65723" lon="7.2348">
        <ele>467.4</ele>
        <time>2020-08-27T12:09:46Z</time>
      </trkpt>
      <trkpt lat="48.65723" lon="7.2347">
        <ele>467.7</ele>
        <time>2020-08-27T12:09:48Z</time>
      </trkpt>
      <trkpt lat="48.65722" lon="7.23461">
        <ele>468.4</ele>
        <time>2020-08-27T12:09:50Z</time>
      </trkpt>
      <trkpt lat="48.65721" lon="7.23454">
        <ele>469.4</ele>
        <time>2020-08-27T12:09:53Z</time>
      </trkpt>
      <trkpt lat="48.65725" lon="7.2345">
        <ele>469.7</ele>
        <time>2020-08-27T12:09:57Z</time>
      </trkpt>
      <trkpt lat="48.65729" lon="7.23444">
        <ele>470.1</ele>
        <time>2020-08-27T12:10:03Z</time>
      </trkpt>
      <trkpt lat="48.65727" lon="7.23435">
        <ele>469.6</ele>
        <time>2020-08-27T12:10:06Z</time>
      </trkpt>
      <trkpt lat="48.65726" lon="7.23428">
        <ele>469.1</ele>
        <time>2020-08-27T12:10:08Z</time>
      </trkpt>
      <trkpt lat="48.65724" lon="7.2342">
        <ele>468.4</ele>
        <time>2020-08-27T12:10:10Z</time>
      </trkpt>
      <trkpt lat="48.65723" lon="7.23413">
        <ele>467.7</ele>
        <time>2020-08-27T12:10:12Z</time>
      </trkpt>
      <trkpt lat="48.65722" lon="7.23406">
        <ele>467.1</ele>
        <time>2020-08-27T12:10:14Z</time>
      </trkpt>
      <trkpt lat="48.65719" lon="7.23397">
        <ele>466.4</ele>
        <time>2020-08-27T12:10:17Z</time>
      </trkpt>
      <trkpt lat="48.65717" lon="7.23391">
        <ele>465.8</ele>
        <time>2020-08-27T12:10:19Z</time>
      </trkpt>
      <trkpt lat="48.65714" lon="7.23384">
        <ele>465.1</ele>
        <time>2020-08-27T12:10:21Z</time>
      </trkpt>
      <trkpt lat="48.65711" lon="7.23377">
        <ele>464.4</ele>
        <time>2020-08-27T12:10:23Z</time>
      </trkpt>
      <trkpt lat="48.65709" lon="7.23369">
        <ele>463.4</ele>
        <time>2020-08-27T12:10:25Z</time>
      </trkpt>
      <trkpt lat="48.65706" lon="7.23362">
        <ele>463.2</ele>
        <time>2020-08-27T12:10:27Z</time>
      </trkpt>
      <trkpt lat="48.65703" lon="7.23355">
        <ele>462.7</ele>
        <time>2020-08-27T12:10:29Z</time>
      </trkpt>
      <trkpt lat="48.657" lon="7.23347">
        <ele>462.5</ele>
        <time>2020-08-27T12:10:31Z</time>
      </trkpt>
      <trkpt lat="48.65697" lon="7.2334">
        <ele>461.9</ele>
        <time>2020-08-27T12:10:33Z</time>
      </trkpt>
      <trkpt lat="48.65695" lon="7.23333">
        <ele>461.6</ele>
        <time>2020-08-27T12:10:35Z</time>
      </trkpt>
      <trkpt lat="48.65693" lon="7.23325">
        <ele>461.3</ele>
        <time>2020-08-27T12:10:37Z</time>
      </trkpt>
      <trkpt lat="48.65691" lon="7.23317">
        <ele>461.2</ele>
        <time>2020-08-27T12:10:39Z</time>
      </trkpt>
      <trkpt lat="48.65687" lon="7.2331">
        <ele>461.2</ele>
        <time>2020-08-27T12:10:41Z</time>
      </trkpt>
      <trkpt lat="48.65683" lon="7.23302">
        <ele>462.4</ele>
        <time>2020-08-27T12:10:43Z</time>
      </trkpt>
      <trkpt lat="48.65679" lon="7.23296">
        <ele>463.4</ele>
        <time>2020-08-27T12:10:45Z</time>
      </trkpt>
      <trkpt lat="48.65677" lon="7.23288">
        <ele>464.2</ele>
        <time>2020-08-27T12:10:47Z</time>
      </trkpt>
      <trkpt lat="48.65675" lon="7.2328">
        <ele>465</ele>
        <time>2020-08-27T12:10:49Z</time>
      </trkpt>
      <trkpt lat="48.65672" lon="7.23273">
        <ele>464.2</ele>
        <time>2020-08-27T12:10:51Z</time>
      </trkpt>
      <trkpt lat="48.65669" lon="7.23266">
        <ele>464.5</ele>
        <time>2020-08-27T12:10:53Z</time>
      </trkpt>
      <trkpt lat="48.65665" lon="7.23261">
        <ele>465.8</ele>
        <time>2020-08-27T12:10:56Z</time>
      </trkpt>
      <trkpt lat="48.65661" lon="7.23256">
        <ele>469.2</ele>
        <time>2020-08-27T12:11:06Z</time>
      </trkpt>
      <trkpt lat="48.65658" lon="7.23247">
        <ele>470.4</ele>
        <time>2020-08-27T12:11:09Z</time>
      </trkpt>
      <trkpt lat="48.65655" lon="7.23238">
        <ele>471.1</ele>
        <time>2020-08-27T12:11:11Z</time>
      </trkpt>
      <trkpt lat="48.65654" lon="7.23228">
        <ele>472.5</ele>
        <time>2020-08-27T12:11:13Z</time>
      </trkpt>
      <trkpt lat="48.65654" lon="7.23217">
        <ele>473</ele>
        <time>2020-08-27T12:11:15Z</time>
      </trkpt>
      <trkpt lat="48.65655" lon="7.23206">
        <ele>472.8</ele>
        <time>2020-08-27T12:11:17Z</time>
      </trkpt>
      <trkpt lat="48.65657" lon="7.23194">
        <ele>472.3</ele>
        <time>2020-08-27T12:11:19Z</time>
      </trkpt>
      <trkpt lat="48.65658" lon="7.23182">
        <ele>471.1</ele>
        <time>2020-08-27T12:11:21Z</time>
      </trkpt>
      <trkpt lat="48.65657" lon="7.23163">
        <ele>470.2</ele>
        <time>2020-08-27T12:11:23Z</time>
      </trkpt>
      <trkpt lat="48.65657" lon="7.23145">
        <ele>469.8</ele>
        <time>2020-08-27T12:11:25Z</time>
      </trkpt>
      <trkpt lat="48.65657" lon="7.23127">
        <ele>469.3</ele>
        <time>2020-08-27T12:11:27Z</time>
      </trkpt>
      <trkpt lat="48.65658" lon="7.2311">
        <ele>469.3</ele>
        <time>2020-08-27T12:11:29Z</time>
      </trkpt>
      <trkpt lat="48.65659" lon="7.23094">
        <ele>474.4</ele>
        <time>2020-08-27T12:11:31Z</time>
      </trkpt>
      <trkpt lat="48.6566" lon="7.23078">
        <ele>474.9</ele>
        <time>2020-08-27T12:11:33Z</time>
      </trkpt>
      <trkpt lat="48.65661" lon="7.23066">
        <ele>474.5</ele>
        <time>2020-08-27T12:11:35Z</time>
      </trkpt>
      <trkpt lat="48.65662" lon="7.23054">
        <ele>474.2</ele>
        <time>2020-08-27T12:11:37Z</time>
      </trkpt>
      <trkpt lat="48.65663" lon="7.23045">
        <ele>473.5</ele>
        <time>2020-08-27T12:11:39Z</time>
      </trkpt>
      <trkpt lat="48.65663" lon="7.23034">
        <ele>472.8</ele>
        <time>2020-08-27T12:11:41Z</time>
      </trkpt>
      <trkpt lat="48.65664" lon="7.23023">
        <ele>472.4</ele>
        <time>2020-08-27T12:11:43Z</time>
      </trkpt>
      <trkpt lat="48.65667" lon="7.23013">
        <ele>472.2</ele>
        <time>2020-08-27T12:11:45Z</time>
      </trkpt>
      <trkpt lat="48.65669" lon="7.23004">
        <ele>471.3</ele>
        <time>2020-08-27T12:11:47Z</time>
      </trkpt>
      <trkpt lat="48.65672" lon="7.22995">
        <ele>470.5</ele>
        <time>2020-08-27T12:11:49Z</time>
      </trkpt>
      <trkpt lat="48.65674" lon="7.22984">
        <ele>470.3</ele>
        <time>2020-08-27T12:11:51Z</time>
      </trkpt>
      <trkpt lat="48.65676" lon="7.22974">
        <ele>470.2</ele>
        <time>2020-08-27T12:11:53Z</time>
      </trkpt>
      <trkpt lat="48.65678" lon="7.22962">
        <ele>470.3</ele>
        <time>2020-08-27T12:11:55Z</time>
      </trkpt>
      <trkpt lat="48.6568" lon="7.2295">
        <ele>470.6</ele>
        <time>2020-08-27T12:11:57Z</time>
      </trkpt>
      <trkpt lat="48.65682" lon="7.22933">
        <ele>471.1</ele>
        <time>2020-08-27T12:12:00Z</time>
      </trkpt>
      <trkpt lat="48.65683" lon="7.22921">
        <ele>471.4</ele>
        <time>2020-08-27T12:12:02Z</time>
      </trkpt>
      <trkpt lat="48.65684" lon="7.22912">
        <ele>470.1</ele>
        <time>2020-08-27T12:12:04Z</time>
      </trkpt>
      <trkpt lat="48.65684" lon="7.22904">
        <ele>469</ele>
        <time>2020-08-27T12:12:06Z</time>
      </trkpt>
      <trkpt lat="48.65685" lon="7.22894">
        <ele>468.3</ele>
        <time>2020-08-27T12:12:08Z</time>
      </trkpt>
      <trkpt lat="48.65689" lon="7.22879">
        <ele>468.3</ele>
        <time>2020-08-27T12:12:10Z</time>
      </trkpt>
      <trkpt lat="48.6569" lon="7.22864">
        <ele>468.2</ele>
        <time>2020-08-27T12:12:12Z</time>
      </trkpt>
      <trkpt lat="48.6569" lon="7.22854">
        <ele>468.6</ele>
        <time>2020-08-27T12:12:14Z</time>
      </trkpt>
      <trkpt lat="48.65686" lon="7.22845">
        <ele>468.1</ele>
        <time>2020-08-27T12:12:16Z</time>
      </trkpt>
      <trkpt lat="48.65684" lon="7.22838">
        <ele>468.1</ele>
        <time>2020-08-27T12:12:18Z</time>
      </trkpt>
      <trkpt lat="48.65686" lon="7.2283">
        <ele>468.5</ele>
        <time>2020-08-27T12:12:21Z</time>
      </trkpt>
      <trkpt lat="48.65689" lon="7.22826">
        <ele>469.6</ele>
        <time>2020-08-27T12:12:32Z</time>
      </trkpt>
      <trkpt lat="48.65693" lon="7.22821">
        <ele>469.7</ele>
        <time>2020-08-27T12:12:34Z</time>
      </trkpt>
      <trkpt lat="48.65698" lon="7.22816">
        <ele>469.9</ele>
        <time>2020-08-27T12:12:36Z</time>
      </trkpt>
      <trkpt lat="48.65704" lon="7.2281">
        <ele>469.8</ele>
        <time>2020-08-27T12:12:38Z</time>
      </trkpt>
      <trkpt lat="48.6571" lon="7.22805">
        <ele>470</ele>
        <time>2020-08-27T12:12:40Z</time>
      </trkpt>
      <trkpt lat="48.65717" lon="7.228">
        <ele>469.9</ele>
        <time>2020-08-27T12:12:42Z</time>
      </trkpt>
      <trkpt lat="48.65723" lon="7.22795">
        <ele>470</ele>
        <time>2020-08-27T12:12:44Z</time>
      </trkpt>
      <trkpt lat="48.65729" lon="7.22791">
        <ele>470.1</ele>
        <time>2020-08-27T12:12:46Z</time>
      </trkpt>
      <trkpt lat="48.65735" lon="7.22786">
        <ele>469.7</ele>
        <time>2020-08-27T12:12:48Z</time>
      </trkpt>
      <trkpt lat="48.65744" lon="7.2278">
        <ele>471.9</ele>
        <time>2020-08-27T12:12:50Z</time>
      </trkpt>
      <trkpt lat="48.65751" lon="7.22774">
        <ele>470.7</ele>
        <time>2020-08-27T12:12:52Z</time>
      </trkpt>
      <trkpt lat="48.65758" lon="7.22768">
        <ele>469.7</ele>
        <time>2020-08-27T12:12:54Z</time>
      </trkpt>
      <trkpt lat="48.65765" lon="7.22761">
        <ele>468.7</ele>
        <time>2020-08-27T12:12:56Z</time>
      </trkpt>
      <trkpt lat="48.65774" lon="7.22754">
        <ele>468.1</ele>
        <time>2020-08-27T12:12:58Z</time>
      </trkpt>
      <trkpt lat="48.65782" lon="7.22746">
        <ele>467.4</ele>
        <time>2020-08-27T12:13:00Z</time>
      </trkpt>
      <trkpt lat="48.65791" lon="7.22737">
        <ele>466.9</ele>
        <time>2020-08-27T12:13:02Z</time>
      </trkpt>
      <trkpt lat="48.658" lon="7.22726">
        <ele>466.9</ele>
        <time>2020-08-27T12:13:04Z</time>
      </trkpt>
      <trkpt lat="48.65808" lon="7.22714">
        <ele>466.8</ele>
        <time>2020-08-27T12:13:06Z</time>
      </trkpt>
      <trkpt lat="48.65814" lon="7.22702">
        <ele>466.7</ele>
        <time>2020-08-27T12:13:08Z</time>
      </trkpt>
      <trkpt lat="48.6582" lon="7.22693">
        <ele>467.1</ele>
        <time>2020-08-27T12:13:10Z</time>
      </trkpt>
      <trkpt lat="48.65823" lon="7.22687">
        <ele>467.3</ele>
        <time>2020-08-27T12:13:12Z</time>
      </trkpt>
      <trkpt lat="48.65826" lon="7.2268">
        <ele>466.4</ele>
        <time>2020-08-27T12:13:17Z</time>
      </trkpt>
      <trkpt lat="48.6583" lon="7.22673">
        <ele>466.7</ele>
        <time>2020-08-27T12:13:22Z</time>
      </trkpt>
      <trkpt lat="48.65834" lon="7.22666">
        <ele>467.1</ele>
        <time>2020-08-27T12:13:24Z</time>
      </trkpt>
      <trkpt lat="48.65841" lon="7.22657">
        <ele>467.1</ele>
        <time>2020-08-27T12:13:26Z</time>
      </trkpt>
      <trkpt lat="48.65847" lon="7.22647">
        <ele>466.8</ele>
        <time>2020-08-27T12:13:28Z</time>
      </trkpt>
      <trkpt lat="48.65853" lon="7.22636">
        <ele>469</ele>
        <time>2020-08-27T12:13:30Z</time>
      </trkpt>
      <trkpt lat="48.6586" lon="7.22621">
        <ele>468.7</ele>
        <time>2020-08-27T12:13:32Z</time>
      </trkpt>
      <trkpt lat="48.65867" lon="7.22604">
        <ele>468.5</ele>
        <time>2020-08-27T12:13:34Z</time>
      </trkpt>
      <trkpt lat="48.65874" lon="7.22589">
        <ele>467.7</ele>
        <time>2020-08-27T12:13:36Z</time>
      </trkpt>
      <trkpt lat="48.65879" lon="7.22575">
        <ele>467</ele>
        <time>2020-08-27T12:13:38Z</time>
      </trkpt>
      <trkpt lat="48.65878" lon="7.22564">
        <ele>464.8</ele>
        <time>2020-08-27T12:13:40Z</time>
      </trkpt>
      <trkpt lat="48.65878" lon="7.22557">
        <ele>463.9</ele>
        <time>2020-08-27T12:13:42Z</time>
      </trkpt>
      <trkpt lat="48.65879" lon="7.2255">
        <ele>462</ele>
        <time>2020-08-27T12:13:48Z</time>
      </trkpt>
      <trkpt lat="48.65882" lon="7.22542">
        <ele>461.2</ele>
        <time>2020-08-27T12:13:52Z</time>
      </trkpt>
      <trkpt lat="48.65885" lon="7.22534">
        <ele>460.7</ele>
        <time>2020-08-27T12:13:54Z</time>
      </trkpt>
      <trkpt lat="48.65888" lon="7.22524">
        <ele>460.9</ele>
        <time>2020-08-27T12:13:56Z</time>
      </trkpt>
      <trkpt lat="48.6589" lon="7.22511">
        <ele>460.4</ele>
        <time>2020-08-27T12:13:58Z</time>
      </trkpt>
      <trkpt lat="48.65891" lon="7.22498">
        <ele>460.1</ele>
        <time>2020-08-27T12:14:00Z</time>
      </trkpt>
      <trkpt lat="48.65892" lon="7.22486">
        <ele>461.5</ele>
        <time>2020-08-27T12:14:02Z</time>
      </trkpt>
      <trkpt lat="48.65891" lon="7.22476">
        <ele>462</ele>
        <time>2020-08-27T12:14:04Z</time>
      </trkpt>
      <trkpt lat="48.6589" lon="7.22466">
        <ele>461.9</ele>
        <time>2020-08-27T12:14:06Z</time>
      </trkpt>
      <trkpt lat="48.6589" lon="7.22457">
        <ele>462</ele>
        <time>2020-08-27T12:14:08Z</time>
      </trkpt>
      <trkpt lat="48.6589" lon="7.22447">
        <ele>461.6</ele>
        <time>2020-08-27T12:14:10Z</time>
      </trkpt>
      <trkpt lat="48.65889" lon="7.22439">
        <ele>462.4</ele>
        <time>2020-08-27T12:14:12Z</time>
      </trkpt>
      <trkpt lat="48.65888" lon="7.22431">
        <ele>462.7</ele>
        <time>2020-08-27T12:14:14Z</time>
      </trkpt>
      <trkpt lat="48.65886" lon="7.22424">
        <ele>463.4</ele>
        <time>2020-08-27T12:14:16Z</time>
      </trkpt>
      <trkpt lat="48.65884" lon="7.22417">
        <ele>464.3</ele>
        <time>2020-08-27T12:14:18Z</time>
      </trkpt>
      <trkpt lat="48.65882" lon="7.22409">
        <ele>465</ele>
        <time>2020-08-27T12:14:20Z</time>
      </trkpt>
      <trkpt lat="48.65879" lon="7.224">
        <ele>465.2</ele>
        <time>2020-08-27T12:14:23Z</time>
      </trkpt>
      <trkpt lat="48.65878" lon="7.22393">
        <ele>464.3</ele>
        <time>2020-08-27T12:14:33Z</time>
      </trkpt>
      <trkpt lat="48.65879" lon="7.22385">
        <ele>463.8</ele>
        <time>2020-08-27T12:14:37Z</time>
      </trkpt>
      <trkpt lat="48.65879" lon="7.22378">
        <ele>463.7</ele>
        <time>2020-08-27T12:14:39Z</time>
      </trkpt>
      <trkpt lat="48.65881" lon="7.22369">
        <ele>463.8</ele>
        <time>2020-08-27T12:14:41Z</time>
      </trkpt>
      <trkpt lat="48.65883" lon="7.22361">
        <ele>464.1</ele>
        <time>2020-08-27T12:14:43Z</time>
      </trkpt>
      <trkpt lat="48.65885" lon="7.22354">
        <ele>464.5</ele>
        <time>2020-08-27T12:14:45Z</time>
      </trkpt>
      <trkpt lat="48.65886" lon="7.22346">
        <ele>464.9</ele>
        <time>2020-08-27T12:14:47Z</time>
      </trkpt>
      <trkpt lat="48.65887" lon="7.2234">
        <ele>465.7</ele>
        <time>2020-08-27T12:14:49Z</time>
      </trkpt>
      <trkpt lat="48.65889" lon="7.2233">
        <ele>451.4</ele>
        <time>2020-08-27T12:14:52Z</time>
      </trkpt>
      <trkpt lat="48.65892" lon="7.22323">
        <ele>448</ele>
        <time>2020-08-27T12:14:55Z</time>
      </trkpt>
      <trkpt lat="48.65895" lon="7.22318">
        <ele>449</ele>
        <time>2020-08-27T12:14:58Z</time>
      </trkpt>
      <trkpt lat="48.65898" lon="7.22311">
        <ele>454.3</ele>
        <time>2020-08-27T12:15:03Z</time>
      </trkpt>
      <trkpt lat="48.659" lon="7.22303">
        <ele>474.1</ele>
        <time>2020-08-27T12:15:27Z</time>
      </trkpt>
      <trkpt lat="48.65903" lon="7.22296">
        <ele>474.6</ele>
        <time>2020-08-27T12:15:30Z</time>
      </trkpt>
      <trkpt lat="48.65908" lon="7.22287">
        <ele>475.5</ele>
        <time>2020-08-27T12:15:33Z</time>
      </trkpt>
      <trkpt lat="48.65912" lon="7.22278">
        <ele>475.9</ele>
        <time>2020-08-27T12:15:35Z</time>
      </trkpt>
      <trkpt lat="48.65916" lon="7.22265">
        <ele>476.5</ele>
        <time>2020-08-27T12:15:37Z</time>
      </trkpt>
      <trkpt lat="48.6592" lon="7.22255">
        <ele>477.3</ele>
        <time>2020-08-27T12:15:39Z</time>
      </trkpt>
      <trkpt lat="48.65924" lon="7.22247">
        <ele>478.7</ele>
        <time>2020-08-27T12:15:41Z</time>
      </trkpt>
      <trkpt lat="48.65927" lon="7.22239">
        <ele>480.5</ele>
        <time>2020-08-27T12:15:43Z</time>
      </trkpt>
      <trkpt lat="48.65931" lon="7.22229">
        <ele>481.9</ele>
        <time>2020-08-27T12:15:45Z</time>
      </trkpt>
      <trkpt lat="48.65935" lon="7.2222">
        <ele>483.1</ele>
        <time>2020-08-27T12:15:47Z</time>
      </trkpt>
      <trkpt lat="48.65939" lon="7.22211">
        <ele>483.4</ele>
        <time>2020-08-27T12:15:49Z</time>
      </trkpt>
      <trkpt lat="48.65943" lon="7.22204">
        <ele>483.4</ele>
        <time>2020-08-27T12:15:51Z</time>
      </trkpt>
      <trkpt lat="48.65948" lon="7.22197">
        <ele>484.4</ele>
        <time>2020-08-27T12:15:53Z</time>
      </trkpt>
      <trkpt lat="48.65954" lon="7.22191">
        <ele>484.1</ele>
        <time>2020-08-27T12:15:55Z</time>
      </trkpt>
      <trkpt lat="48.6596" lon="7.22185">
        <ele>484.9</ele>
        <time>2020-08-27T12:15:57Z</time>
      </trkpt>
      <trkpt lat="48.65965" lon="7.2218">
        <ele>485</ele>
        <time>2020-08-27T12:15:59Z</time>
      </trkpt>
      <trkpt lat="48.65971" lon="7.22176">
        <ele>486.1</ele>
        <time>2020-08-27T12:16:01Z</time>
      </trkpt>
      <trkpt lat="48.65977" lon="7.22173">
        <ele>482.7</ele>
        <time>2020-08-27T12:16:03Z</time>
      </trkpt>
      <trkpt lat="48.65983" lon="7.22169">
        <ele>482.4</ele>
        <time>2020-08-27T12:16:05Z</time>
      </trkpt>
      <trkpt lat="48.65989" lon="7.22165">
        <ele>481.8</ele>
        <time>2020-08-27T12:16:07Z</time>
      </trkpt>
      <trkpt lat="48.65996" lon="7.22159">
        <ele>483.1</ele>
        <time>2020-08-27T12:16:09Z</time>
      </trkpt>
      <trkpt lat="48.66004" lon="7.22152">
        <ele>483.7</ele>
        <time>2020-08-27T12:16:11Z</time>
      </trkpt>
      <trkpt lat="48.66011" lon="7.22144">
        <ele>485.4</ele>
        <time>2020-08-27T12:16:13Z</time>
      </trkpt>
      <trkpt lat="48.66018" lon="7.22134">
        <ele>486.4</ele>
        <time>2020-08-27T12:16:15Z</time>
      </trkpt>
      <trkpt lat="48.66023" lon="7.22128">
        <ele>488.4</ele>
        <time>2020-08-27T12:16:17Z</time>
      </trkpt>
      <trkpt lat="48.6603" lon="7.22123">
        <ele>488.8</ele>
        <time>2020-08-27T12:16:19Z</time>
      </trkpt>
      <trkpt lat="48.66036" lon="7.22121">
        <ele>490.1</ele>
        <time>2020-08-27T12:16:21Z</time>
      </trkpt>
      <trkpt lat="48.66042" lon="7.22119">
        <ele>490.5</ele>
        <time>2020-08-27T12:16:23Z</time>
      </trkpt>
      <trkpt lat="48.66049" lon="7.22118">
        <ele>491</ele>
        <time>2020-08-27T12:16:25Z</time>
      </trkpt>
      <trkpt lat="48.6606" lon="7.22112">
        <ele>490.7</ele>
        <time>2020-08-27T12:16:27Z</time>
      </trkpt>
      <trkpt lat="48.66071" lon="7.22105">
        <ele>487</ele>
        <time>2020-08-27T12:16:29Z</time>
      </trkpt>
      <trkpt lat="48.66083" lon="7.22098">
        <ele>485.1</ele>
        <time>2020-08-27T12:16:31Z</time>
      </trkpt>
      <trkpt lat="48.66094" lon="7.2209">
        <ele>484.6</ele>
        <time>2020-08-27T12:16:33Z</time>
      </trkpt>
      <trkpt lat="48.66105" lon="7.22083">
        <ele>484.1</ele>
        <time>2020-08-27T12:16:35Z</time>
      </trkpt>
      <trkpt lat="48.66115" lon="7.22072">
        <ele>481.2</ele>
        <time>2020-08-27T12:16:37Z</time>
      </trkpt>
      <trkpt lat="48.66122" lon="7.22063">
        <ele>481.1</ele>
        <time>2020-08-27T12:16:39Z</time>
      </trkpt>
      <trkpt lat="48.66128" lon="7.22054">
        <ele>478.8</ele>
        <time>2020-08-27T12:16:41Z</time>
      </trkpt>
      <trkpt lat="48.66132" lon="7.22043">
        <ele>479.7</ele>
        <time>2020-08-27T12:16:43Z</time>
      </trkpt>
      <trkpt lat="48.66135" lon="7.22031">
        <ele>480.3</ele>
        <time>2020-08-27T12:16:45Z</time>
      </trkpt>
      <trkpt lat="48.66137" lon="7.22024">
        <ele>480.9</ele>
        <time>2020-08-27T12:16:47Z</time>
      </trkpt>
      <trkpt lat="48.66142" lon="7.22027">
        <ele>487.4</ele>
        <time>2020-08-27T12:17:04Z</time>
      </trkpt>
      <trkpt lat="48.66145" lon="7.22018">
        <ele>488.8</ele>
        <time>2020-08-27T12:17:09Z</time>
      </trkpt>
      <trkpt lat="48.66149" lon="7.22008">
        <ele>488.6</ele>
        <time>2020-08-27T12:17:11Z</time>
      </trkpt>
      <trkpt lat="48.66152" lon="7.21997">
        <ele>488.6</ele>
        <time>2020-08-27T12:17:13Z</time>
      </trkpt>
      <trkpt lat="48.66155" lon="7.21985">
        <ele>488.2</ele>
        <time>2020-08-27T12:17:15Z</time>
      </trkpt>
      <trkpt lat="48.6616" lon="7.21974">
        <ele>488.2</ele>
        <time>2020-08-27T12:17:17Z</time>
      </trkpt>
      <trkpt lat="48.66166" lon="7.21963">
        <ele>487.8</ele>
        <time>2020-08-27T12:17:19Z</time>
      </trkpt>
      <trkpt lat="48.6617" lon="7.21952">
        <ele>487.5</ele>
        <time>2020-08-27T12:17:21Z</time>
      </trkpt>
      <trkpt lat="48.66174" lon="7.21943">
        <ele>487.5</ele>
        <time>2020-08-27T12:17:23Z</time>
      </trkpt>
      <trkpt lat="48.66178" lon="7.21936">
        <ele>487.2</ele>
        <time>2020-08-27T12:17:25Z</time>
      </trkpt>
      <trkpt lat="48.66181" lon="7.21929">
        <ele>487.2</ele>
        <time>2020-08-27T12:17:27Z</time>
      </trkpt>
      <trkpt lat="48.66184" lon="7.21923">
        <ele>486.1</ele>
        <time>2020-08-27T12:17:29Z</time>
      </trkpt>
      <trkpt lat="48.66187" lon="7.21915">
        <ele>485.1</ele>
        <time>2020-08-27T12:17:31Z</time>
      </trkpt>
      <trkpt lat="48.66191" lon="7.21907">
        <ele>484.1</ele>
        <time>2020-08-27T12:17:33Z</time>
      </trkpt>
      <trkpt lat="48.66196" lon="7.21893">
        <ele>482.2</ele>
        <time>2020-08-27T12:17:35Z</time>
      </trkpt>
      <trkpt lat="48.66203" lon="7.2188">
        <ele>480.7</ele>
        <time>2020-08-27T12:17:37Z</time>
      </trkpt>
      <trkpt lat="48.66209" lon="7.2187">
        <ele>479.7</ele>
        <time>2020-08-27T12:17:39Z</time>
      </trkpt>
      <trkpt lat="48.66215" lon="7.21861">
        <ele>479</ele>
        <time>2020-08-27T12:17:41Z</time>
      </trkpt>
      <trkpt lat="48.66219" lon="7.21852">
        <ele>478.9</ele>
        <time>2020-08-27T12:17:43Z</time>
      </trkpt>
      <trkpt lat="48.66225" lon="7.21843">
        <ele>479.6</ele>
        <time>2020-08-27T12:17:45Z</time>
      </trkpt>
      <trkpt lat="48.66231" lon="7.21834">
        <ele>480.4</ele>
        <time>2020-08-27T12:17:47Z</time>
      </trkpt>
      <trkpt lat="48.66237" lon="7.21825">
        <ele>480.8</ele>
        <time>2020-08-27T12:17:49Z</time>
      </trkpt>
      <trkpt lat="48.66244" lon="7.21812">
        <ele>480.5</ele>
        <time>2020-08-27T12:17:51Z</time>
      </trkpt>
      <trkpt lat="48.66251" lon="7.21799">
        <ele>481.1</ele>
        <time>2020-08-27T12:17:53Z</time>
      </trkpt>
      <trkpt lat="48.66256" lon="7.2179">
        <ele>481.5</ele>
        <time>2020-08-27T12:17:55Z</time>
      </trkpt>
      <trkpt lat="48.66263" lon="7.21781">
        <ele>482.9</ele>
        <time>2020-08-27T12:17:57Z</time>
      </trkpt>
      <trkpt lat="48.66269" lon="7.21773">
        <ele>482.7</ele>
        <time>2020-08-27T12:17:59Z</time>
      </trkpt>
      <trkpt lat="48.66276" lon="7.21763">
        <ele>483.4</ele>
        <time>2020-08-27T12:18:01Z</time>
      </trkpt>
      <trkpt lat="48.66282" lon="7.21755">
        <ele>483.8</ele>
        <time>2020-08-27T12:18:03Z</time>
      </trkpt>
      <trkpt lat="48.6629" lon="7.21746">
        <ele>484.5</ele>
        <time>2020-08-27T12:18:05Z</time>
      </trkpt>
      <trkpt lat="48.66297" lon="7.21736">
        <ele>484.5</ele>
        <time>2020-08-27T12:18:07Z</time>
      </trkpt>
      <trkpt lat="48.66303" lon="7.21729">
        <ele>484.7</ele>
        <time>2020-08-27T12:18:09Z</time>
      </trkpt>
      <trkpt lat="48.66307" lon="7.21724">
        <ele>484.6</ele>
        <time>2020-08-27T12:18:12Z</time>
      </trkpt>
      <trkpt lat="48.66311" lon="7.21717">
        <ele>483.5</ele>
        <time>2020-08-27T12:18:16Z</time>
      </trkpt>
      <trkpt lat="48.66316" lon="7.21713">
        <ele>483.6</ele>
        <time>2020-08-27T12:18:18Z</time>
      </trkpt>
      <trkpt lat="48.66319" lon="7.21707">
        <ele>483.5</ele>
        <time>2020-08-27T12:18:20Z</time>
      </trkpt>
      <trkpt lat="48.66323" lon="7.21699">
        <ele>482.9</ele>
        <time>2020-08-27T12:18:23Z</time>
      </trkpt>
      <trkpt lat="48.66326" lon="7.21692">
        <ele>482.4</ele>
        <time>2020-08-27T12:18:25Z</time>
      </trkpt>
      <trkpt lat="48.66328" lon="7.21684">
        <ele>482</ele>
        <time>2020-08-27T12:18:27Z</time>
      </trkpt>
      <trkpt lat="48.66331" lon="7.21675">
        <ele>481.5</ele>
        <time>2020-08-27T12:18:29Z</time>
      </trkpt>
      <trkpt lat="48.66334" lon="7.21666">
        <ele>481.3</ele>
        <time>2020-08-27T12:18:31Z</time>
      </trkpt>
      <trkpt lat="48.66335" lon="7.21657">
        <ele>480.9</ele>
        <time>2020-08-27T12:18:33Z</time>
      </trkpt>
      <trkpt lat="48.66336" lon="7.21648">
        <ele>481.4</ele>
        <time>2020-08-27T12:18:35Z</time>
      </trkpt>
      <trkpt lat="48.66338" lon="7.21638">
        <ele>481.8</ele>
        <time>2020-08-27T12:18:37Z</time>
      </trkpt>
      <trkpt lat="48.66341" lon="7.21627">
        <ele>482.5</ele>
        <time>2020-08-27T12:18:39Z</time>
      </trkpt>
      <trkpt lat="48.66343" lon="7.21614">
        <ele>483</ele>
        <time>2020-08-27T12:18:41Z</time>
      </trkpt>
      <trkpt lat="48.66346" lon="7.21602">
        <ele>483.3</ele>
        <time>2020-08-27T12:18:43Z</time>
      </trkpt>
      <trkpt lat="48.6635" lon="7.2159">
        <ele>483.7</ele>
        <time>2020-08-27T12:18:45Z</time>
      </trkpt>
      <trkpt lat="48.66353" lon="7.21579">
        <ele>484.2</ele>
        <time>2020-08-27T12:18:47Z</time>
      </trkpt>
      <trkpt lat="48.66356" lon="7.21568">
        <ele>484.6</ele>
        <time>2020-08-27T12:18:49Z</time>
      </trkpt>
      <trkpt lat="48.6636" lon="7.21558">
        <ele>484.8</ele>
        <time>2020-08-27T12:18:51Z</time>
      </trkpt>
      <trkpt lat="48.66364" lon="7.21548">
        <ele>485.4</ele>
        <time>2020-08-27T12:18:53Z</time>
      </trkpt>
      <trkpt lat="48.66369" lon="7.21539">
        <ele>486</ele>
        <time>2020-08-27T12:18:55Z</time>
      </trkpt>
      <trkpt lat="48.66375" lon="7.2153">
        <ele>487.2</ele>
        <time>2020-08-27T12:18:57Z</time>
      </trkpt>
      <trkpt lat="48.66379" lon="7.21521">
        <ele>488.4</ele>
        <time>2020-08-27T12:18:59Z</time>
      </trkpt>
      <trkpt lat="48.66383" lon="7.21514">
        <ele>489.5</ele>
        <time>2020-08-27T12:19:01Z</time>
      </trkpt>
      <trkpt lat="48.66386" lon="7.21505">
        <ele>490</ele>
        <time>2020-08-27T12:19:03Z</time>
      </trkpt>
      <trkpt lat="48.66389" lon="7.21495">
        <ele>491.3</ele>
        <time>2020-08-27T12:19:05Z</time>
      </trkpt>
      <trkpt lat="48.66393" lon="7.21485">
        <ele>491.4</ele>
        <time>2020-08-27T12:19:07Z</time>
      </trkpt>
      <trkpt lat="48.66397" lon="7.21474">
        <ele>492.2</ele>
        <time>2020-08-27T12:19:09Z</time>
      </trkpt>
      <trkpt lat="48.664" lon="7.21463">
        <ele>492</ele>
        <time>2020-08-27T12:19:11Z</time>
      </trkpt>
      <trkpt lat="48.66404" lon="7.21452">
        <ele>491.8</ele>
        <time>2020-08-27T12:19:13Z</time>
      </trkpt>
      <trkpt lat="48.66411" lon="7.21439">
        <ele>491.8</ele>
        <time>2020-08-27T12:19:15Z</time>
      </trkpt>
      <trkpt lat="48.66417" lon="7.21429">
        <ele>492.8</ele>
        <time>2020-08-27T12:19:17Z</time>
      </trkpt>
      <trkpt lat="48.66422" lon="7.2142">
        <ele>492.8</ele>
        <time>2020-08-27T12:19:19Z</time>
      </trkpt>
      <trkpt lat="48.66428" lon="7.2141">
        <ele>493.9</ele>
        <time>2020-08-27T12:19:21Z</time>
      </trkpt>
      <trkpt lat="48.66435" lon="7.21399">
        <ele>494.8</ele>
        <time>2020-08-27T12:19:23Z</time>
      </trkpt>
      <trkpt lat="48.66443" lon="7.21388">
        <ele>494.8</ele>
        <time>2020-08-27T12:19:25Z</time>
      </trkpt>
      <trkpt lat="48.66451" lon="7.21377">
        <ele>495.8</ele>
        <time>2020-08-27T12:19:27Z</time>
      </trkpt>
      <trkpt lat="48.66458" lon="7.21368">
        <ele>496.6</ele>
        <time>2020-08-27T12:19:29Z</time>
      </trkpt>
      <trkpt lat="48.66465" lon="7.21359">
        <ele>497.7</ele>
        <time>2020-08-27T12:19:31Z</time>
      </trkpt>
      <trkpt lat="48.66474" lon="7.21348">
        <ele>498.2</ele>
        <time>2020-08-27T12:19:33Z</time>
      </trkpt>
      <trkpt lat="48.66481" lon="7.21337">
        <ele>498.5</ele>
        <time>2020-08-27T12:19:35Z</time>
      </trkpt>
      <trkpt lat="48.66488" lon="7.21328">
        <ele>498.3</ele>
        <time>2020-08-27T12:19:37Z</time>
      </trkpt>
      <trkpt lat="48.66497" lon="7.2132">
        <ele>498.4</ele>
        <time>2020-08-27T12:19:39Z</time>
      </trkpt>
      <trkpt lat="48.66505" lon="7.21312">
        <ele>498.1</ele>
        <time>2020-08-27T12:19:41Z</time>
      </trkpt>
      <trkpt lat="48.66513" lon="7.21304">
        <ele>497</ele>
        <time>2020-08-27T12:19:43Z</time>
      </trkpt>
      <trkpt lat="48.66521" lon="7.21297">
        <ele>496.3</ele>
        <time>2020-08-27T12:19:45Z</time>
      </trkpt>
      <trkpt lat="48.66531" lon="7.21291">
        <ele>495.4</ele>
        <time>2020-08-27T12:19:47Z</time>
      </trkpt>
      <trkpt lat="48.66539" lon="7.21288">
        <ele>494.4</ele>
        <time>2020-08-27T12:19:49Z</time>
      </trkpt>
      <trkpt lat="48.66547" lon="7.21283">
        <ele>493.1</ele>
        <time>2020-08-27T12:19:51Z</time>
      </trkpt>
      <trkpt lat="48.66555" lon="7.21279">
        <ele>492</ele>
        <time>2020-08-27T12:19:53Z</time>
      </trkpt>
      <trkpt lat="48.66562" lon="7.21274">
        <ele>491.6</ele>
        <time>2020-08-27T12:19:55Z</time>
      </trkpt>
      <trkpt lat="48.66566" lon="7.21269">
        <ele>491.4</ele>
        <time>2020-08-27T12:19:57Z</time>
      </trkpt>
      <trkpt lat="48.66571" lon="7.21267">
        <ele>492.4</ele>
        <time>2020-08-27T12:20:03Z</time>
      </trkpt>
      <trkpt lat="48.66576" lon="7.21265">
        <ele>491.9</ele>
        <time>2020-08-27T12:20:05Z</time>
      </trkpt>
      <trkpt lat="48.66583" lon="7.21263">
        <ele>491.5</ele>
        <time>2020-08-27T12:20:07Z</time>
      </trkpt>
      <trkpt lat="48.6659" lon="7.21261">
        <ele>490.7</ele>
        <time>2020-08-27T12:20:09Z</time>
      </trkpt>
      <trkpt lat="48.66596" lon="7.21259">
        <ele>490.5</ele>
        <time>2020-08-27T12:20:11Z</time>
      </trkpt>
      <trkpt lat="48.66603" lon="7.21257">
        <ele>489.8</ele>
        <time>2020-08-27T12:20:13Z</time>
      </trkpt>
      <trkpt lat="48.6661" lon="7.21255">
        <ele>489.2</ele>
        <time>2020-08-27T12:20:15Z</time>
      </trkpt>
      <trkpt lat="48.66614" lon="7.21255">
        <ele>488.7</ele>
        <time>2020-08-27T12:20:17Z</time>
      </trkpt>
      <trkpt lat="48.6662" lon="7.21253">
        <ele>487.5</ele>
        <time>2020-08-27T12:20:22Z</time>
      </trkpt>
      <trkpt lat="48.66627" lon="7.21251">
        <ele>486.7</ele>
        <time>2020-08-27T12:20:25Z</time>
      </trkpt>
      <trkpt lat="48.66632" lon="7.21248">
        <ele>485.9</ele>
        <time>2020-08-27T12:20:27Z</time>
      </trkpt>
      <trkpt lat="48.66637" lon="7.21245">
        <ele>485.2</ele>
        <time>2020-08-27T12:20:29Z</time>
      </trkpt>
      <trkpt lat="48.66642" lon="7.21247">
        <ele>484.7</ele>
        <time>2020-08-27T12:20:31Z</time>
      </trkpt>
      <trkpt lat="48.66645" lon="7.21253">
        <ele>484.3</ele>
        <time>2020-08-27T12:20:34Z</time>
      </trkpt>
      <trkpt lat="48.66644" lon="7.21245">
        <ele>472.2</ele>
        <time>2020-08-27T12:20:51Z</time>
      </trkpt>
      <trkpt lat="48.66646" lon="7.21239">
        <ele>476.9</ele>
        <time>2020-08-27T12:20:56Z</time>
      </trkpt>
      <trkpt lat="48.66651" lon="7.21232">
        <ele>478.4</ele>
        <time>2020-08-27T12:20:59Z</time>
      </trkpt>
      <trkpt lat="48.66654" lon="7.21225">
        <ele>479.4</ele>
        <time>2020-08-27T12:21:01Z</time>
      </trkpt>
      <trkpt lat="48.66656" lon="7.21216">
        <ele>479.7</ele>
        <time>2020-08-27T12:21:03Z</time>
      </trkpt>
      <trkpt lat="48.66657" lon="7.21207">
        <ele>480.3</ele>
        <time>2020-08-27T12:21:05Z</time>
      </trkpt>
      <trkpt lat="48.66656" lon="7.212">
        <ele>480.7</ele>
        <time>2020-08-27T12:21:07Z</time>
      </trkpt>
      <trkpt lat="48.66655" lon="7.2119">
        <ele>481.1</ele>
        <time>2020-08-27T12:21:10Z</time>
      </trkpt>
      <trkpt lat="48.66658" lon="7.21184">
        <ele>480.7</ele>
        <time>2020-08-27T12:21:12Z</time>
      </trkpt>
      <trkpt lat="48.66663" lon="7.21181">
        <ele>480.1</ele>
        <time>2020-08-27T12:21:14Z</time>
      </trkpt>
      <trkpt lat="48.66669" lon="7.21178">
        <ele>479.4</ele>
        <time>2020-08-27T12:21:16Z</time>
      </trkpt>
      <trkpt lat="48.66676" lon="7.21177">
        <ele>478.5</ele>
        <time>2020-08-27T12:21:18Z</time>
      </trkpt>
      <trkpt lat="48.66683" lon="7.21176">
        <ele>477.4</ele>
        <time>2020-08-27T12:21:20Z</time>
      </trkpt>
      <trkpt lat="48.66688" lon="7.21173">
        <ele>476.3</ele>
        <time>2020-08-27T12:21:22Z</time>
      </trkpt>
      <trkpt lat="48.66694" lon="7.2117">
        <ele>475.4</ele>
        <time>2020-08-27T12:21:24Z</time>
      </trkpt>
      <trkpt lat="48.66698" lon="7.21164">
        <ele>474.6</ele>
        <time>2020-08-27T12:21:26Z</time>
      </trkpt>
      <trkpt lat="48.66702" lon="7.21158">
        <ele>474</ele>
        <time>2020-08-27T12:21:28Z</time>
      </trkpt>
      <trkpt lat="48.66705" lon="7.21152">
        <ele>473.5</ele>
        <time>2020-08-27T12:21:30Z</time>
      </trkpt>
      <trkpt lat="48.66709" lon="7.21144">
        <ele>472.4</ele>
        <time>2020-08-27T12:21:33Z</time>
      </trkpt>
      <trkpt lat="48.6671" lon="7.21137">
        <ele>472.8</ele>
        <time>2020-08-27T12:21:36Z</time>
      </trkpt>
      <trkpt lat="48.66712" lon="7.21127">
        <ele>473.4</ele>
        <time>2020-08-27T12:21:39Z</time>
      </trkpt>
      <trkpt lat="48.66714" lon="7.21119">
        <ele>473.2</ele>
        <time>2020-08-27T12:21:41Z</time>
      </trkpt>
      <trkpt lat="48.66716" lon="7.21111">
        <ele>473.4</ele>
        <time>2020-08-27T12:21:43Z</time>
      </trkpt>
      <trkpt lat="48.66718" lon="7.21102">
        <ele>473</ele>
        <time>2020-08-27T12:21:45Z</time>
      </trkpt>
      <trkpt lat="48.6672" lon="7.21094">
        <ele>472.5</ele>
        <time>2020-08-27T12:21:47Z</time>
      </trkpt>
      <trkpt lat="48.66721" lon="7.21086">
        <ele>472.4</ele>
        <time>2020-08-27T12:21:49Z</time>
      </trkpt>
      <trkpt lat="48.66723" lon="7.21077">
        <ele>471.7</ele>
        <time>2020-08-27T12:21:51Z</time>
      </trkpt>
      <trkpt lat="48.66726" lon="7.21067">
        <ele>459.9</ele>
        <time>2020-08-27T12:21:53Z</time>
      </trkpt>
      <trkpt lat="48.66728" lon="7.21058">
        <ele>451.5</ele>
        <time>2020-08-27T12:21:55Z</time>
      </trkpt>
      <trkpt lat="48.6673" lon="7.21048">
        <ele>448.2</ele>
        <time>2020-08-27T12:21:57Z</time>
      </trkpt>
      <trkpt lat="48.66731" lon="7.2104">
        <ele>449.3</ele>
        <time>2020-08-27T12:21:59Z</time>
      </trkpt>
      <trkpt lat="48.66731" lon="7.21032">
        <ele>455.5</ele>
        <time>2020-08-27T12:22:03Z</time>
      </trkpt>
      <trkpt lat="48.66733" lon="7.21024">
        <ele>460.7</ele>
        <time>2020-08-27T12:22:07Z</time>
      </trkpt>
      <trkpt lat="48.66735" lon="7.21018">
        <ele>462.7</ele>
        <time>2020-08-27T12:22:11Z</time>
      </trkpt>
      <trkpt lat="48.66738" lon="7.21011">
        <ele>466.4</ele>
        <time>2020-08-27T12:22:18Z</time>
      </trkpt>
      <trkpt lat="48.66736" lon="7.21004">
        <ele>466.1</ele>
        <time>2020-08-27T12:22:27Z</time>
      </trkpt>
      <trkpt lat="48.66738" lon="7.20996">
        <ele>467.1</ele>
        <time>2020-08-27T12:22:31Z</time>
      </trkpt>
      <trkpt lat="48.66739" lon="7.20987">
        <ele>468.3</ele>
        <time>2020-08-27T12:22:34Z</time>
      </trkpt>
      <trkpt lat="48.66739" lon="7.20979">
        <ele>468.3</ele>
        <time>2020-08-27T12:22:36Z</time>
      </trkpt>
      <trkpt lat="48.66738" lon="7.20971">
        <ele>469.2</ele>
        <time>2020-08-27T12:22:38Z</time>
      </trkpt>
      <trkpt lat="48.66738" lon="7.20964">
        <ele>469.2</ele>
        <time>2020-08-27T12:22:40Z</time>
      </trkpt>
      <trkpt lat="48.66738" lon="7.20956">
        <ele>468.9</ele>
        <time>2020-08-27T12:22:42Z</time>
      </trkpt>
      <trkpt lat="48.66739" lon="7.20945">
        <ele>468.4</ele>
        <time>2020-08-27T12:22:44Z</time>
      </trkpt>
      <trkpt lat="48.66739" lon="7.20937">
        <ele>468.9</ele>
        <time>2020-08-27T12:22:46Z</time>
      </trkpt>
      <trkpt lat="48.66735" lon="7.20934">
        <ele>469</ele>
        <time>2020-08-27T12:22:50Z</time>
      </trkpt>
      <trkpt lat="48.66731" lon="7.20938">
        <ele>468.7</ele>
        <time>2020-08-27T12:22:52Z</time>
      </trkpt>
      <trkpt lat="48.66727" lon="7.20941">
        <ele>469.9</ele>
        <time>2020-08-27T12:23:08Z</time>
      </trkpt>
      <trkpt lat="48.66721" lon="7.20947">
        <ele>468</ele>
        <time>2020-08-27T12:23:16Z</time>
      </trkpt>
      <trkpt lat="48.66711" lon="7.20956">
        <ele>466.6</ele>
        <time>2020-08-27T12:23:19Z</time>
      </trkpt>
      <trkpt lat="48.66703" lon="7.20963">
        <ele>465.5</ele>
        <time>2020-08-27T12:23:21Z</time>
      </trkpt>
      <trkpt lat="48.66695" lon="7.20967">
        <ele>465.2</ele>
        <time>2020-08-27T12:23:23Z</time>
      </trkpt>
      <trkpt lat="48.66689" lon="7.20968">
        <ele>465.3</ele>
        <time>2020-08-27T12:23:25Z</time>
      </trkpt>
      <trkpt lat="48.66683" lon="7.20968">
        <ele>465.5</ele>
        <time>2020-08-27T12:23:27Z</time>
      </trkpt>
      <trkpt lat="48.66677" lon="7.20967">
        <ele>454.8</ele>
        <time>2020-08-27T12:23:29Z</time>
      </trkpt>
      <trkpt lat="48.66669" lon="7.20963">
        <ele>452.5</ele>
        <time>2020-08-27T12:23:31Z</time>
      </trkpt>
      <trkpt lat="48.66662" lon="7.2096">
        <ele>451.6</ele>
        <time>2020-08-27T12:23:33Z</time>
      </trkpt>
      <trkpt lat="48.66654" lon="7.20963">
        <ele>454.1</ele>
        <time>2020-08-27T12:23:35Z</time>
      </trkpt>
      <trkpt lat="48.66643" lon="7.20972">
        <ele>458</ele>
        <time>2020-08-27T12:23:38Z</time>
      </trkpt>
      <trkpt lat="48.66637" lon="7.20976">
        <ele>460.9</ele>
        <time>2020-08-27T12:23:40Z</time>
      </trkpt>
      <trkpt lat="48.66632" lon="7.20977">
        <ele>463</ele>
        <time>2020-08-27T12:23:42Z</time>
      </trkpt>
      <trkpt lat="48.66626" lon="7.20978">
        <ele>465.8</ele>
        <time>2020-08-27T12:23:45Z</time>
      </trkpt>
      <trkpt lat="48.66621" lon="7.20978">
        <ele>467.3</ele>
        <time>2020-08-27T12:23:51Z</time>
      </trkpt>
      <trkpt lat="48.66617" lon="7.20976">
        <ele>469.3</ele>
        <time>2020-08-27T12:23:59Z</time>
      </trkpt>
      <trkpt lat="48.66612" lon="7.20975">
        <ele>469.6</ele>
        <time>2020-08-27T12:24:01Z</time>
      </trkpt>
      <trkpt lat="48.66606" lon="7.20973">
        <ele>469.6</ele>
        <time>2020-08-27T12:24:03Z</time>
      </trkpt>
      <trkpt lat="48.666" lon="7.20973">
        <ele>469.3</ele>
        <time>2020-08-27T12:24:05Z</time>
      </trkpt>
      <trkpt lat="48.66593" lon="7.20972">
        <ele>469.1</ele>
        <time>2020-08-27T12:24:07Z</time>
      </trkpt>
      <trkpt lat="48.66586" lon="7.2097">
        <ele>468.7</ele>
        <time>2020-08-27T12:24:09Z</time>
      </trkpt>
      <trkpt lat="48.66578" lon="7.20966">
        <ele>468.8</ele>
        <time>2020-08-27T12:24:11Z</time>
      </trkpt>
      <trkpt lat="48.6657" lon="7.20961">
        <ele>467.5</ele>
        <time>2020-08-27T12:24:13Z</time>
      </trkpt>
      <trkpt lat="48.66562" lon="7.20955">
        <ele>467.1</ele>
        <time>2020-08-27T12:24:15Z</time>
      </trkpt>
      <trkpt lat="48.66554" lon="7.20951">
        <ele>467.8</ele>
        <time>2020-08-27T12:24:17Z</time>
      </trkpt>
      <trkpt lat="48.66547" lon="7.20947">
        <ele>467.8</ele>
        <time>2020-08-27T12:24:19Z</time>
      </trkpt>
      <trkpt lat="48.66542" lon="7.20942">
        <ele>468.5</ele>
        <time>2020-08-27T12:24:21Z</time>
      </trkpt>
      <trkpt lat="48.66537" lon="7.20937">
        <ele>468.4</ele>
        <time>2020-08-27T12:24:23Z</time>
      </trkpt>
      <trkpt lat="48.66533" lon="7.20931">
        <ele>468.7</ele>
        <time>2020-08-27T12:24:25Z</time>
      </trkpt>
      <trkpt lat="48.66529" lon="7.20927">
        <ele>468.7</ele>
        <time>2020-08-27T12:24:27Z</time>
      </trkpt>
      <trkpt lat="48.66524" lon="7.20923">
        <ele>468.4</ele>
        <time>2020-08-27T12:24:29Z</time>
      </trkpt>
      <trkpt lat="48.66519" lon="7.20916">
        <ele>468.2</ele>
        <time>2020-08-27T12:24:31Z</time>
      </trkpt>
      <trkpt lat="48.66514" lon="7.20909">
        <ele>467.9</ele>
        <time>2020-08-27T12:24:33Z</time>
      </trkpt>
      <trkpt lat="48.66508" lon="7.20902">
        <ele>467.5</ele>
        <time>2020-08-27T12:24:35Z</time>
      </trkpt>
      <trkpt lat="48.66501" lon="7.20894">
        <ele>467</ele>
        <time>2020-08-27T12:24:37Z</time>
      </trkpt>
      <trkpt lat="48.66493" lon="7.20886">
        <ele>467.2</ele>
        <time>2020-08-27T12:24:39Z</time>
      </trkpt>
      <trkpt lat="48.66484" lon="7.20876">
        <ele>467</ele>
        <time>2020-08-27T12:24:41Z</time>
      </trkpt>
      <trkpt lat="48.66475" lon="7.20867">
        <ele>467.1</ele>
        <time>2020-08-27T12:24:43Z</time>
      </trkpt>
      <trkpt lat="48.66467" lon="7.20858">
        <ele>467.1</ele>
        <time>2020-08-27T12:24:45Z</time>
      </trkpt>
      <trkpt lat="48.66459" lon="7.20847">
        <ele>467.5</ele>
        <time>2020-08-27T12:24:47Z</time>
      </trkpt>
      <trkpt lat="48.66451" lon="7.20839">
        <ele>467.6</ele>
        <time>2020-08-27T12:24:49Z</time>
      </trkpt>
      <trkpt lat="48.66443" lon="7.20833">
        <ele>467.9</ele>
        <time>2020-08-27T12:24:51Z</time>
      </trkpt>
      <trkpt lat="48.66437" lon="7.20827">
        <ele>468.1</ele>
        <time>2020-08-27T12:24:53Z</time>
      </trkpt>
      <trkpt lat="48.66431" lon="7.20824">
        <ele>469.3</ele>
        <time>2020-08-27T12:24:55Z</time>
      </trkpt>
      <trkpt lat="48.66426" lon="7.2082">
        <ele>472</ele>
        <time>2020-08-27T12:24:58Z</time>
      </trkpt>
      <trkpt lat="48.66422" lon="7.20815">
        <ele>475</ele>
        <time>2020-08-27T12:25:03Z</time>
      </trkpt>
      <trkpt lat="48.66418" lon="7.20809">
        <ele>476</ele>
        <time>2020-08-27T12:25:07Z</time>
      </trkpt>
      <trkpt lat="48.66413" lon="7.20804">
        <ele>476.1</ele>
        <time>2020-08-27T12:25:10Z</time>
      </trkpt>
      <trkpt lat="48.66408" lon="7.20801">
        <ele>476.2</ele>
        <time>2020-08-27T12:25:12Z</time>
      </trkpt>
      <trkpt lat="48.66403" lon="7.20799">
        <ele>476.5</ele>
        <time>2020-08-27T12:25:14Z</time>
      </trkpt>
      <trkpt lat="48.66397" lon="7.20796">
        <ele>476.6</ele>
        <time>2020-08-27T12:25:16Z</time>
      </trkpt>
      <trkpt lat="48.66392" lon="7.20793">
        <ele>476.4</ele>
        <time>2020-08-27T12:25:18Z</time>
      </trkpt>
      <trkpt lat="48.66387" lon="7.20792">
        <ele>475.8</ele>
        <time>2020-08-27T12:25:20Z</time>
      </trkpt>
      <trkpt lat="48.66382" lon="7.20792">
        <ele>474.7</ele>
        <time>2020-08-27T12:25:22Z</time>
      </trkpt>
      <trkpt lat="48.66375" lon="7.20793">
        <ele>474.1</ele>
        <time>2020-08-27T12:25:24Z</time>
      </trkpt>
      <trkpt lat="48.66369" lon="7.20794">
        <ele>473</ele>
        <time>2020-08-27T12:25:26Z</time>
      </trkpt>
      <trkpt lat="48.66363" lon="7.20795">
        <ele>472.3</ele>
        <time>2020-08-27T12:25:28Z</time>
      </trkpt>
      <trkpt lat="48.66356" lon="7.20797">
        <ele>471</ele>
        <time>2020-08-27T12:25:30Z</time>
      </trkpt>
      <trkpt lat="48.6635" lon="7.20798">
        <ele>469.6</ele>
        <time>2020-08-27T12:25:32Z</time>
      </trkpt>
      <trkpt lat="48.66343" lon="7.20799">
        <ele>468.6</ele>
        <time>2020-08-27T12:25:34Z</time>
      </trkpt>
      <trkpt lat="48.66337" lon="7.20801">
        <ele>467.7</ele>
        <time>2020-08-27T12:25:36Z</time>
      </trkpt>
      <trkpt lat="48.66329" lon="7.20803">
        <ele>467.1</ele>
        <time>2020-08-27T12:25:38Z</time>
      </trkpt>
      <trkpt lat="48.66321" lon="7.20806">
        <ele>466.6</ele>
        <time>2020-08-27T12:25:40Z</time>
      </trkpt>
      <trkpt lat="48.66312" lon="7.20808">
        <ele>466.1</ele>
        <time>2020-08-27T12:25:42Z</time>
      </trkpt>
      <trkpt lat="48.66304" lon="7.20809">
        <ele>466.4</ele>
        <time>2020-08-27T12:25:44Z</time>
      </trkpt>
      <trkpt lat="48.66297" lon="7.2081">
        <ele>466.4</ele>
        <time>2020-08-27T12:25:46Z</time>
      </trkpt>
      <trkpt lat="48.66291" lon="7.2081">
        <ele>465.9</ele>
        <time>2020-08-27T12:25:48Z</time>
      </trkpt>
      <trkpt lat="48.66286" lon="7.2081">
        <ele>465.2</ele>
        <time>2020-08-27T12:25:50Z</time>
      </trkpt>
      <trkpt lat="48.6628" lon="7.20809">
        <ele>464.5</ele>
        <time>2020-08-27T12:25:52Z</time>
      </trkpt>
      <trkpt lat="48.66275" lon="7.20808">
        <ele>464.7</ele>
        <time>2020-08-27T12:25:54Z</time>
      </trkpt>
      <trkpt lat="48.66268" lon="7.20807">
        <ele>464.1</ele>
        <time>2020-08-27T12:25:57Z</time>
      </trkpt>
      <trkpt lat="48.66263" lon="7.20808">
        <ele>463.9</ele>
        <time>2020-08-27T12:25:59Z</time>
      </trkpt>
      <trkpt lat="48.66258" lon="7.20807">
        <ele>463.2</ele>
        <time>2020-08-27T12:26:01Z</time>
      </trkpt>
      <trkpt lat="48.66253" lon="7.20806">
        <ele>462</ele>
        <time>2020-08-27T12:26:03Z</time>
      </trkpt>
      <trkpt lat="48.66248" lon="7.20802">
        <ele>461.2</ele>
        <time>2020-08-27T12:26:05Z</time>
      </trkpt>
      <trkpt lat="48.66243" lon="7.20798">
        <ele>460.9</ele>
        <time>2020-08-27T12:26:07Z</time>
      </trkpt>
      <trkpt lat="48.66236" lon="7.20792">
        <ele>459.8</ele>
        <time>2020-08-27T12:26:09Z</time>
      </trkpt>
      <trkpt lat="48.66229" lon="7.20787">
        <ele>459</ele>
        <time>2020-08-27T12:26:11Z</time>
      </trkpt>
      <trkpt lat="48.66223" lon="7.20782">
        <ele>458.4</ele>
        <time>2020-08-27T12:26:13Z</time>
      </trkpt>
      <trkpt lat="48.66217" lon="7.20776">
        <ele>457.8</ele>
        <time>2020-08-27T12:26:15Z</time>
      </trkpt>
      <trkpt lat="48.66212" lon="7.20769">
        <ele>456.8</ele>
        <time>2020-08-27T12:26:17Z</time>
      </trkpt>
      <trkpt lat="48.66206" lon="7.2076">
        <ele>456.2</ele>
        <time>2020-08-27T12:26:19Z</time>
      </trkpt>
      <trkpt lat="48.66201" lon="7.20751">
        <ele>456</ele>
        <time>2020-08-27T12:26:21Z</time>
      </trkpt>
      <trkpt lat="48.66197" lon="7.20743">
        <ele>455.6</ele>
        <time>2020-08-27T12:26:23Z</time>
      </trkpt>
      <trkpt lat="48.66193" lon="7.20737">
        <ele>455.6</ele>
        <time>2020-08-27T12:26:25Z</time>
      </trkpt>
      <trkpt lat="48.66188" lon="7.2073">
        <ele>455.2</ele>
        <time>2020-08-27T12:26:27Z</time>
      </trkpt>
      <trkpt lat="48.66183" lon="7.20721">
        <ele>454.8</ele>
        <time>2020-08-27T12:26:29Z</time>
      </trkpt>
      <trkpt lat="48.66177" lon="7.20708">
        <ele>454.2</ele>
        <time>2020-08-27T12:26:31Z</time>
      </trkpt>
      <trkpt lat="48.66171" lon="7.20697">
        <ele>452.8</ele>
        <time>2020-08-27T12:26:33Z</time>
      </trkpt>
      <trkpt lat="48.66166" lon="7.20687">
        <ele>451.3</ele>
        <time>2020-08-27T12:26:35Z</time>
      </trkpt>
      <trkpt lat="48.66161" lon="7.20678">
        <ele>450.2</ele>
        <time>2020-08-27T12:26:37Z</time>
      </trkpt>
      <trkpt lat="48.66157" lon="7.20674">
        <ele>449.4</ele>
        <time>2020-08-27T12:26:39Z</time>
      </trkpt>
      <trkpt lat="48.66152" lon="7.20669">
        <ele>449.7</ele>
        <time>2020-08-27T12:26:43Z</time>
      </trkpt>
      <trkpt lat="48.66148" lon="7.20665">
        <ele>449.1</ele>
        <time>2020-08-27T12:26:50Z</time>
      </trkpt>
      <trkpt lat="48.66143" lon="7.20659">
        <ele>449.1</ele>
        <time>2020-08-27T12:26:52Z</time>
      </trkpt>
      <trkpt lat="48.66138" lon="7.2065">
        <ele>449.2</ele>
        <time>2020-08-27T12:26:54Z</time>
      </trkpt>
      <trkpt lat="48.66134" lon="7.20638">
        <ele>448.3</ele>
        <time>2020-08-27T12:26:56Z</time>
      </trkpt>
      <trkpt lat="48.66129" lon="7.20626">
        <ele>447.3</ele>
        <time>2020-08-27T12:26:58Z</time>
      </trkpt>
      <trkpt lat="48.66123" lon="7.20613">
        <ele>445.9</ele>
        <time>2020-08-27T12:27:00Z</time>
      </trkpt>
      <trkpt lat="48.66115" lon="7.206">
        <ele>444.8</ele>
        <time>2020-08-27T12:27:02Z</time>
      </trkpt>
      <trkpt lat="48.66108" lon="7.20587">
        <ele>443.9</ele>
        <time>2020-08-27T12:27:04Z</time>
      </trkpt>
      <trkpt lat="48.66101" lon="7.20574">
        <ele>442.3</ele>
        <time>2020-08-27T12:27:06Z</time>
      </trkpt>
      <trkpt lat="48.66093" lon="7.20562">
        <ele>441.4</ele>
        <time>2020-08-27T12:27:08Z</time>
      </trkpt>
      <trkpt lat="48.66085" lon="7.20549">
        <ele>439.4</ele>
        <time>2020-08-27T12:27:10Z</time>
      </trkpt>
      <trkpt lat="48.66078" lon="7.20538">
        <ele>437</ele>
        <time>2020-08-27T12:27:12Z</time>
      </trkpt>
      <trkpt lat="48.66071" lon="7.20529">
        <ele>435</ele>
        <time>2020-08-27T12:27:14Z</time>
      </trkpt>
      <trkpt lat="48.66065" lon="7.20521">
        <ele>433.3</ele>
        <time>2020-08-27T12:27:16Z</time>
      </trkpt>
      <trkpt lat="48.66061" lon="7.20512">
        <ele>430.4</ele>
        <time>2020-08-27T12:27:18Z</time>
      </trkpt>
      <trkpt lat="48.66056" lon="7.20505">
        <ele>428.5</ele>
        <time>2020-08-27T12:27:20Z</time>
      </trkpt>
      <trkpt lat="48.66053" lon="7.20495">
        <ele>427.1</ele>
        <time>2020-08-27T12:27:22Z</time>
      </trkpt>
      <trkpt lat="48.66048" lon="7.20486">
        <ele>425.6</ele>
        <time>2020-08-27T12:27:24Z</time>
      </trkpt>
      <trkpt lat="48.66043" lon="7.20479">
        <ele>423.4</ele>
        <time>2020-08-27T12:27:26Z</time>
      </trkpt>
      <trkpt lat="48.66037" lon="7.20473">
        <ele>422</ele>
        <time>2020-08-27T12:27:28Z</time>
      </trkpt>
      <trkpt lat="48.66031" lon="7.20467">
        <ele>420.8</ele>
        <time>2020-08-27T12:27:30Z</time>
      </trkpt>
      <trkpt lat="48.66025" lon="7.20462">
        <ele>419.1</ele>
        <time>2020-08-27T12:27:32Z</time>
      </trkpt>
      <trkpt lat="48.6602" lon="7.20457">
        <ele>415.9</ele>
        <time>2020-08-27T12:27:34Z</time>
      </trkpt>
      <trkpt lat="48.66016" lon="7.20451">
        <ele>414.2</ele>
        <time>2020-08-27T12:27:36Z</time>
      </trkpt>
      <trkpt lat="48.66011" lon="7.20443">
        <ele>412.2</ele>
        <time>2020-08-27T12:27:38Z</time>
      </trkpt>
      <trkpt lat="48.66006" lon="7.20436">
        <ele>410.3</ele>
        <time>2020-08-27T12:27:40Z</time>
      </trkpt>
      <trkpt lat="48.66" lon="7.20429">
        <ele>407.3</ele>
        <time>2020-08-27T12:27:42Z</time>
      </trkpt>
      <trkpt lat="48.65993" lon="7.20422">
        <ele>405.4</ele>
        <time>2020-08-27T12:27:44Z</time>
      </trkpt>
      <trkpt lat="48.65985" lon="7.20414">
        <ele>404.3</ele>
        <time>2020-08-27T12:27:46Z</time>
      </trkpt>
      <trkpt lat="48.65977" lon="7.20407">
        <ele>402.5</ele>
        <time>2020-08-27T12:27:48Z</time>
      </trkpt>
      <trkpt lat="48.65968" lon="7.204">
        <ele>401.1</ele>
        <time>2020-08-27T12:27:50Z</time>
      </trkpt>
      <trkpt lat="48.65961" lon="7.20393">
        <ele>389.9</ele>
        <time>2020-08-27T12:27:52Z</time>
      </trkpt>
      <trkpt lat="48.65953" lon="7.20382">
        <ele>388.3</ele>
        <time>2020-08-27T12:27:54Z</time>
      </trkpt>
      <trkpt lat="48.65944" lon="7.2037">
        <ele>382.5</ele>
        <time>2020-08-27T12:27:56Z</time>
      </trkpt>
      <trkpt lat="48.65937" lon="7.20361">
        <ele>382.4</ele>
        <time>2020-08-27T12:27:58Z</time>
      </trkpt>
      <trkpt lat="48.65931" lon="7.20356">
        <ele>382.8</ele>
        <time>2020-08-27T12:28:00Z</time>
      </trkpt>
      <trkpt lat="48.65925" lon="7.20352">
        <ele>383.4</ele>
        <time>2020-08-27T12:28:02Z</time>
      </trkpt>
      <trkpt lat="48.65919" lon="7.20349">
        <ele>384.5</ele>
        <time>2020-08-27T12:28:04Z</time>
      </trkpt>
      <trkpt lat="48.65913" lon="7.20346">
        <ele>385.3</ele>
        <time>2020-08-27T12:28:06Z</time>
      </trkpt>
      <trkpt lat="48.65907" lon="7.20347">
        <ele>386.9</ele>
        <time>2020-08-27T12:28:08Z</time>
      </trkpt>
      <trkpt lat="48.659" lon="7.20349">
        <ele>387.4</ele>
        <time>2020-08-27T12:28:10Z</time>
      </trkpt>
      <trkpt lat="48.65894" lon="7.20352">
        <ele>388.3</ele>
        <time>2020-08-27T12:28:12Z</time>
      </trkpt>
      <trkpt lat="48.65889" lon="7.20356">
        <ele>388.6</ele>
        <time>2020-08-27T12:28:14Z</time>
      </trkpt>
      <trkpt lat="48.65882" lon="7.20363">
        <ele>384.5</ele>
        <time>2020-08-27T12:28:18Z</time>
      </trkpt>
      <trkpt lat="48.65875" lon="7.20373">
        <ele>385.1</ele>
        <time>2020-08-27T12:28:20Z</time>
      </trkpt>
      <trkpt lat="48.65871" lon="7.20381">
        <ele>386.1</ele>
        <time>2020-08-27T12:28:22Z</time>
      </trkpt>
      <trkpt lat="48.65867" lon="7.20389">
        <ele>387.2</ele>
        <time>2020-08-27T12:28:24Z</time>
      </trkpt>
      <trkpt lat="48.65863" lon="7.20397">
        <ele>388.4</ele>
        <time>2020-08-27T12:28:26Z</time>
      </trkpt>
      <trkpt lat="48.65859" lon="7.20405">
        <ele>389.9</ele>
        <time>2020-08-27T12:28:28Z</time>
      </trkpt>
      <trkpt lat="48.65855" lon="7.20412">
        <ele>390.8</ele>
        <time>2020-08-27T12:28:30Z</time>
      </trkpt>
      <trkpt lat="48.65852" lon="7.20421">
        <ele>391.2</ele>
        <time>2020-08-27T12:28:32Z</time>
      </trkpt>
      <trkpt lat="48.65849" lon="7.20429">
        <ele>391.6</ele>
        <time>2020-08-27T12:28:34Z</time>
      </trkpt>
      <trkpt lat="48.65846" lon="7.20438">
        <ele>391.7</ele>
        <time>2020-08-27T12:28:36Z</time>
      </trkpt>
      <trkpt lat="48.65843" lon="7.20448">
        <ele>390.9</ele>
        <time>2020-08-27T12:28:38Z</time>
      </trkpt>
      <trkpt lat="48.6584" lon="7.20457">
        <ele>390.4</ele>
        <time>2020-08-27T12:28:40Z</time>
      </trkpt>
      <trkpt lat="48.65838" lon="7.20464">
        <ele>390.9</ele>
        <time>2020-08-27T12:28:42Z</time>
      </trkpt>
      <trkpt lat="48.65835" lon="7.20469">
        <ele>394.1</ele>
        <time>2020-08-27T12:28:54Z</time>
      </trkpt>
      <trkpt lat="48.65834" lon="7.20477">
        <ele>394.8</ele>
        <time>2020-08-27T12:28:59Z</time>
      </trkpt>
      <trkpt lat="48.6583" lon="7.20485">
        <ele>394.8</ele>
        <time>2020-08-27T12:29:01Z</time>
      </trkpt>
      <trkpt lat="48.65825" lon="7.20498">
        <ele>395.7</ele>
        <time>2020-08-27T12:29:04Z</time>
      </trkpt>
      <trkpt lat="48.6582" lon="7.20507">
        <ele>396.5</ele>
        <time>2020-08-27T12:29:07Z</time>
      </trkpt>
      <trkpt lat="48.65816" lon="7.20524">
        <ele>397.5</ele>
        <time>2020-08-27T12:29:09Z</time>
      </trkpt>
      <trkpt lat="48.65814" lon="7.20535">
        <ele>398</ele>
        <time>2020-08-27T12:29:11Z</time>
      </trkpt>
      <trkpt lat="48.65815" lon="7.20547">
        <ele>398.1</ele>
        <time>2020-08-27T12:29:13Z</time>
      </trkpt>
      <trkpt lat="48.65816" lon="7.20558">
        <ele>398.7</ele>
        <time>2020-08-27T12:29:15Z</time>
      </trkpt>
      <trkpt lat="48.65816" lon="7.20568">
        <ele>398.9</ele>
        <time>2020-08-27T12:29:17Z</time>
      </trkpt>
      <trkpt lat="48.65815" lon="7.20579">
        <ele>399.6</ele>
        <time>2020-08-27T12:29:19Z</time>
      </trkpt>
      <trkpt lat="48.65815" lon="7.20588">
        <ele>401.1</ele>
        <time>2020-08-27T12:29:21Z</time>
      </trkpt>
      <trkpt lat="48.65814" lon="7.20601">
        <ele>401.9</ele>
        <time>2020-08-27T12:29:23Z</time>
      </trkpt>
      <trkpt lat="48.65813" lon="7.20613">
        <ele>402.5</ele>
        <time>2020-08-27T12:29:25Z</time>
      </trkpt>
      <trkpt lat="48.65812" lon="7.20626">
        <ele>402.9</ele>
        <time>2020-08-27T12:29:27Z</time>
      </trkpt>
      <trkpt lat="48.6581" lon="7.20639">
        <ele>402.5</ele>
        <time>2020-08-27T12:29:29Z</time>
      </trkpt>
      <trkpt lat="48.65809" lon="7.20653">
        <ele>402.1</ele>
        <time>2020-08-27T12:29:31Z</time>
      </trkpt>
      <trkpt lat="48.65808" lon="7.20667">
        <ele>401.7</ele>
        <time>2020-08-27T12:29:33Z</time>
      </trkpt>
      <trkpt lat="48.65808" lon="7.20681">
        <ele>401.2</ele>
        <time>2020-08-27T12:29:35Z</time>
      </trkpt>
      <trkpt lat="48.65806" lon="7.20696">
        <ele>400.2</ele>
        <time>2020-08-27T12:29:37Z</time>
      </trkpt>
      <trkpt lat="48.65805" lon="7.20711">
        <ele>399.8</ele>
        <time>2020-08-27T12:29:39Z</time>
      </trkpt>
      <trkpt lat="48.65804" lon="7.20727">
        <ele>398.7</ele>
        <time>2020-08-27T12:29:41Z</time>
      </trkpt>
      <trkpt lat="48.65803" lon="7.20742">
        <ele>398.5</ele>
        <time>2020-08-27T12:29:43Z</time>
      </trkpt>
      <trkpt lat="48.658" lon="7.20757">
        <ele>397.9</ele>
        <time>2020-08-27T12:29:45Z</time>
      </trkpt>
      <trkpt lat="48.65797" lon="7.20772">
        <ele>397.6</ele>
        <time>2020-08-27T12:29:47Z</time>
      </trkpt>
      <trkpt lat="48.65796" lon="7.20785">
        <ele>397.3</ele>
        <time>2020-08-27T12:29:49Z</time>
      </trkpt>
      <trkpt lat="48.65794" lon="7.20799">
        <ele>397</ele>
        <time>2020-08-27T12:29:51Z</time>
      </trkpt>
      <trkpt lat="48.65792" lon="7.20814">
        <ele>396.6</ele>
        <time>2020-08-27T12:29:53Z</time>
      </trkpt>
      <trkpt lat="48.65792" lon="7.20828">
        <ele>395.8</ele>
        <time>2020-08-27T12:29:55Z</time>
      </trkpt>
      <trkpt lat="48.65792" lon="7.20842">
        <ele>395.6</ele>
        <time>2020-08-27T12:29:57Z</time>
      </trkpt>
      <trkpt lat="48.65793" lon="7.20853">
        <ele>395.5</ele>
        <time>2020-08-27T12:30:00Z</time>
      </trkpt>
      <trkpt lat="48.65793" lon="7.2087">
        <ele>395.4</ele>
        <time>2020-08-27T12:30:03Z</time>
      </trkpt>
      <trkpt lat="48.65794" lon="7.20888">
        <ele>394.7</ele>
        <time>2020-08-27T12:30:05Z</time>
      </trkpt>
      <trkpt lat="48.65794" lon="7.20898">
        <ele>395.3</ele>
        <time>2020-08-27T12:30:08Z</time>
      </trkpt>
      <trkpt lat="48.65795" lon="7.20911">
        <ele>395.9</ele>
        <time>2020-08-27T12:30:10Z</time>
      </trkpt>
      <trkpt lat="48.65795" lon="7.20931">
        <ele>396.2</ele>
        <time>2020-08-27T12:30:12Z</time>
      </trkpt>
      <trkpt lat="48.65796" lon="7.20947">
        <ele>397.4</ele>
        <time>2020-08-27T12:30:15Z</time>
      </trkpt>
      <trkpt lat="48.65797" lon="7.20971">
        <ele>398.5</ele>
        <time>2020-08-27T12:30:18Z</time>
      </trkpt>
      <trkpt lat="48.658" lon="7.20997">
        <ele>399.2</ele>
        <time>2020-08-27T12:30:21Z</time>
      </trkpt>
      <trkpt lat="48.65801" lon="7.21014">
        <ele>399.2</ele>
        <time>2020-08-27T12:30:23Z</time>
      </trkpt>
      <trkpt lat="48.65805" lon="7.21039">
        <ele>398.9</ele>
        <time>2020-08-27T12:30:25Z</time>
      </trkpt>
    </trkseg>
  </trk>
</gpx>